Time;durP1;ratioP1;P1;durP2;ratioP2;P2;SDS_P1;SDS_P2;PMS_P1;PMS_P2;Temp;Humidity;BMP_temperature;BMP_pressure;BME280_temperature;BME280_humidity;BME280_pressure;Samples;Min_cycle;Max_cycle;Signal;HPM_P1;HPM_P2
2023/03/28 00:01:43;;;;;;;3.47;3.27;;;;;;;-2.12;100.00;97444.25;4963477;28;21166;-66
2023/03/28 00:04:11;;;;;;;3.17;2.97;;;;;;;-2.16;100.00;97444.56;4988667;28;20209;-66
2023/03/28 00:06:40;;;;;;;3.03;2.83;;;;;;;-2.23;100.00;97454.50;4979443;28;20216;-66
2023/03/28 00:09:09;;;;;;;3.23;3.03;;;;;;;-2.31;100.00;97456.75;4944634;28;20346;-65
2023/03/28 00:11:37;;;;;;;2.90;2.60;;;;;;;-2.39;100.00;97454.63;4979726;28;20225;-66
2023/03/28 00:14:07;;;;;;;3.10;2.90;;;;;;;-2.46;100.00;97456.78;4978235;28;20196;-66
2023/03/28 00:16:35;;;;;;;2.90;2.70;;;;;;;-2.48;100.00;97464.66;4974727;28;20231;-65
2023/03/28 00:19:06;;;;;;;3.60;3.30;;;;;;;-2.57;100.00;97461.78;4959024;28;20225;-66
2023/03/28 00:21:35;;;;;;;3.40;2.87;;;;;;;-2.66;100.00;97466.63;4977531;28;20981;-66
2023/03/28 00:24:05;;;;;;;3.43;3.23;;;;;;;-2.65;100.00;97464.88;4977979;28;20209;-66
2023/03/28 00:26:35;;;;;;;3.00;2.80;;;;;;;-2.57;100.00;97466.97;4945581;28;20209;-65
2023/03/28 00:29:04;;;;;;;3.23;3.03;;;;;;;-2.52;100.00;97472.72;4986094;28;20217;-65
2023/03/28 00:31:33;;;;;;;3.20;3.00;;;;;;;-2.47;100.00;97473.25;4970837;28;20694;-65
2023/03/28 00:34:01;;;;;;;3.30;3.10;;;;;;;-2.55;100.00;97471.16;4963565;28;20391;-66
2023/03/28 00:36:31;;;;;;;3.13;2.87;;;;;;;-2.46;100.00;97472.34;4984561;28;20235;-65
2023/03/28 00:39:00;;;;;;;3.50;3.20;;;;;;;-2.37;100.00;97473.53;4979623;28;20217;-64
2023/03/28 00:41:29;;;;;;;3.37;3.17;;;;;;;-2.29;100.00;97476.47;4944006;28;20227;-63
2023/03/28 00:43:58;;;;;;;3.47;3.27;;;;;;;-2.21;100.00;97474.25;4982395;28;20212;-64
2023/03/28 00:46:29;;;;;;;3.37;3.17;;;;;;;-2.25;100.00;97479.72;4974718;28;20212;-66
2023/03/28 00:48:59;;;;;;;2.50;2.40;;;;;;;-2.34;100.00;97481.97;4962712;28;20236;-64
2023/03/28 00:51:30;;;;;;;4.57;2.83;;;;;;;-2.21;100.00;97474.25;4978012;28;20204;-66
2023/03/28 00:54:02;;;;;;;3.43;2.50;;;;;;;-2.31;100.00;97472.31;4980657;28;20205;-65
2023/03/28 00:56:32;;;;;;;3.03;2.50;;;;;;;-2.15;100.00;97478.19;4949989;28;21051;-65
2023/03/28 00:59:03;;;;;;;3.17;2.87;;;;;;;-2.18;100.00;97473.19;4984883;28;20252;-65
2023/03/28 01:01:30;;;;;;;3.87;3.57;;;;;;;-2.13;100.00;97472.91;4979287;28;20200;-65
2023/03/28 01:04:01;;;;;;;3.17;2.90;;;;;;;-2.21;100.00;97479.44;4963438;28;20208;-64
2023/03/28 01:06:32;;;;;;;3.73;3.00;;;;;;;-2.23;100.00;97473.50;4977915;28;20208;-65
2023/03/28 01:09:04;;;;;;;2.80;2.57;;;;;;;-2.27;100.00;97481.56;4978705;28;20764;-64
2023/03/28 01:11:32;;;;;;;2.87;2.60;;;;;;;-2.14;100.00;97485.06;4944058;28;20796;-65
2023/03/28 01:14:03;;;;;;;2.90;2.67;;;;;;;-2.24;100.00;97484.81;4972457;28;21203;-65
2023/03/28 01:16:31;;;;;;;2.90;2.70;;;;;;;-2.20;100.00;97494.09;4985450;28;20236;-65
2023/03/28 01:19:01;;;;;;;3.93;2.63;;;;;;;-2.16;100.00;97496.47;4981060;28;20929;-63
2023/03/28 01:21:53;;;;;;;4.03;2.83;;;;;;;-2.10;100.00;97490.91;4961256;28;20422;-66
2023/03/28 01:24:45;;;;;;;3.93;2.70;;;;;;;-2.04;100.00;97495.69;4982594;28;20211;-66
2023/03/28 01:27:15;;;;;;;2.77;2.57;;;;;;;-2.01;100.00;97500.69;4962623;28;20214;-66
2023/03/28 01:30:09;;;;;;;2.77;2.57;;;;;;;-2.00;100.00;97498.94;4969660;28;20213;-65
2023/03/28 01:33:27;;;;;;;3.43;2.73;;;;;;;-1.93;100.00;97498.44;4980256;28;20203;-64
2023/03/28 01:36:08;;;;;;;3.00;2.80;;;;;;;-1.94;100.00;97501.97;4956718;28;20246;-66
2023/03/28 01:38:40;;;;;;;2.90;2.70;;;;;;;-1.96;100.00;97503.84;4983348;28;20216;-66
2023/03/28 01:41:13;;;;;;;3.37;3.17;;;;;;;-2.08;100.00;97509.81;4985440;28;20298;-66
2023/03/28 01:43:46;;;;;;;2.90;2.70;;;;;;;-2.06;100.00;97502.75;4946053;28;20209;-66
2023/03/28 01:46:15;;;;;;;3.00;2.80;;;;;;;-2.09;100.00;97505.53;4978637;28;20554;-65
2023/03/28 01:48:54;;;;;;;3.57;3.10;;;;;;;-1.95;100.00;97512.47;4980812;28;20220;-65
2023/03/28 01:51:25;;;;;;;3.20;2.90;;;;;;;-1.90;100.00;97508.63;4953453;28;20231;-67
2023/03/28 01:53:57;;;;;;;3.10;2.90;;;;;;;-2.01;100.00;97507.66;4978668;28;21069;-65
2023/03/28 01:56:29;;;;;;;2.60;2.37;;;;;;;-2.04;100.00;97512.13;4969343;28;20232;-67
2023/03/28 01:59:01;;;;;;;3.07;2.93;;;;;;;-2.14;100.00;97516.22;4946673;28;20303;-63
2023/03/28 02:01:35;;;;;;;4.70;3.23;;;;;;;-2.14;100.00;97512.78;4981044;28;20239;-64
2023/03/28 02:04:07;;;;;;;3.17;2.97;;;;;;;-2.14;100.00;97511.03;4987389;28;20623;-65
2023/03/28 02:06:49;;;;;;;3.20;3.00;;;;;;;-2.12;100.00;97508.34;4966474;28;20213;-68
2023/03/28 02:09:20;;;;;;;3.30;3.10;;;;;;;-2.21;100.00;97508.00;4981966;28;20228;-68
2023/03/28 02:11:54;;;;;;;3.30;3.10;;;;;;;-2.19;100.00;97516.53;4979254;28;20251;-67
2023/03/28 02:14:25;;;;;;;3.63;3.43;;;;;;;-2.06;100.00;97516.59;4946200;28;20290;-66
2023/03/28 02:16:56;;;;;;;5.10;3.60;;;;;;;-2.10;100.00;97511.66;4981127;28;20220;-66
2023/03/28 02:19:24;;;;;;;3.40;3.10;;;;;;;-2.17;100.00;97518.19;4965692;28;20359;-67
2023/03/28 02:21:55;;;;;;;3.67;3.37;;;;;;;-2.10;100.00;97516.88;4976660;28;20200;-65
2023/03/28 02:24:24;;;;;;;3.40;3.20;;;;;;;-2.11;100.00;97512.59;4972721;28;20215;-66
2023/03/28 02:26:52;;;;;;;4.70;3.80;;;;;;;-2.14;100.00;97502.41;4981708;28;20946;-66
2023/03/28 02:29:20;;;;;;;3.63;3.43;;;;;;;-2.15;100.00;97511.94;4964092;28;20739;-67
2023/03/28 02:31:49;;;;;;;3.57;3.33;;;;;;;-2.24;100.00;97513.38;4943544;28;20205;-67
2023/03/28 02:34:17;;;;;;;4.00;3.40;;;;;;;-2.36;100.00;97514.13;4976065;28;20216;-64
2023/03/28 02:36:48;;;;;;;3.70;3.37;;;;;;;-2.30;100.00;97516.31;4956958;28;20220;-64
2023/03/28 02:39:37;;;;;;;3.80;3.60;;;;;;;-2.30;100.00;97523.31;4952991;28;20221;-64
2023/03/28 02:42:24;;;;;;;4.50;3.33;;;;;;;-2.12;100.00;97518.72;4980329;28;20201;-65
2023/03/28 02:45:07;;;;;;;4.20;3.80;;;;;;;-2.12;100.00;97518.72;4985231;28;20201;-64
2023/03/28 02:47:37;;;;;;;3.93;3.40;;;;;;;-2.13;100.00;97523.06;4970861;28;20204;-64
2023/03/28 02:50:14;;;;;;;4.70;4.07;;;;;;;-2.12;100.00;97521.31;4965169;28;20351;-62
2023/03/28 02:52:50;;;;;;;4.83;3.70;;;;;;;-2.09;100.00;97524.53;4979398;28;20196;-63
2023/03/28 02:55:24;;;;;;;4.00;3.63;;;;;;;-2.17;100.00;97531.16;4973978;28;20216;-65
2023/03/28 02:57:54;;;;;;;3.83;3.53;;;;;;;-2.25;100.00;97526.44;4976519;28;20842;-66
2023/03/28 03:00:22;;;;;;;4.40;3.97;;;;;;;-2.31;100.00;97532.84;4978350;28;20237;-65
2023/03/28 03:02:51;;;;;;;3.43;3.23;;;;;;;-2.31;100.00;97532.84;4945627;28;20219;-66
2023/03/28 03:05:20;;;;;;;4.87;4.37;;;;;;;-2.29;100.00;97536.16;4955793;28;20212;-64
2023/03/28 03:07:48;;;;;;;5.43;3.70;;;;;;;-2.34;100.00;97540.81;4982183;28;20982;-63
2023/03/28 03:10:16;;;;;;;4.13;3.83;;;;;;;-2.40;100.00;97539.44;4977356;28;20231;-64
2023/03/28 03:12:46;;;;;;;3.93;3.47;;;;;;;-2.32;100.00;97549.34;4970316;28;21174;-64
2023/03/28 03:15:15;;;;;;;3.60;3.40;;;;;;;-2.16;100.00;97548.41;4976656;28;20230;-64
2023/03/28 03:17:44;;;;;;;4.97;4.57;;;;;;;-2.13;100.00;97541.25;4944177;28;20283;-63
2023/03/28 03:20:11;;;;;;;4.13;3.43;;;;;;;-2.19;100.00;97550.28;4971202;28;20225;-64
2023/03/28 03:22:39;;;;;;;4.23;3.90;;;;;;;-2.20;100.00;97551.19;4961081;28;20392;-63
2023/03/28 03:25:08;;;;;;;3.83;3.57;;;;;;;-2.30;100.00;97542.28;4980716;28;20699;-65
2023/03/28 03:27:39;;;;;;;3.87;3.43;;;;;;;-2.40;100.00;97547.22;4981457;28;20202;-64
2023/03/28 03:30:10;;;;;;;3.67;3.37;;;;;;;-2.31;100.00;97548.41;4975821;28;20228;-65
2023/03/28 03:32:38;;;;;;;3.73;3.53;;;;;;;-2.30;100.00;97549.25;4934750;28;20436;-64
2023/03/28 03:35:06;;;;;;;3.93;3.53;;;;;;;-2.41;100.00;97555.09;4981080;28;20215;-64
2023/03/28 03:37:34;;;;;;;5.47;4.00;;;;;;;-2.37;100.00;97549.63;4959510;28;20401;-63
2023/03/28 03:40:03;;;;;;;3.97;3.77;;;;;;;-2.36;100.00;97551.31;4951904;28;20232;-63
2023/03/28 03:42:31;;;;;;;4.57;4.17;;;;;;;-2.45;100.00;97556.22;4969718;28;20497;-64
2023/03/28 03:44:59;;;;;;;4.83;4.27;;;;;;;-2.52;100.00;97560.94;4987572;28;20412;-63
2023/03/28 03:47:28;;;;;;;4.73;4.33;;;;;;;-2.50;100.00;97551.28;4945455;28;20204;-64
2023/03/28 03:49:56;;;;;;;3.87;3.67;;;;;;;-2.44;100.00;97561.31;4975185;28;20229;-64
2023/03/28 03:52:25;;;;;;;4.30;4.00;;;;;;;-2.45;100.00;97564.84;4963727;28;20210;-65
2023/03/28 03:54:52;;;;;;;4.60;4.27;;;;;;;-2.30;100.00;97568.25;4948923;28;20651;-63
2023/03/28 03:57:20;;;;;;;5.90;4.40;;;;;;;-2.35;100.00;97570.28;4966800;28;20465;-67
2023/03/28 03:59:48;;;;;;;4.80;3.90;;;;;;;-2.34;100.00;97571.97;4975766;28;20258;-66
2023/03/28 04:02:15;;;;;;;5.33;4.07;;;;;;;-2.33;100.00;97579.66;4961588;28;20212;-64
2023/03/28 04:04:46;;;;;;;4.03;3.60;;;;;;;-2.35;100.00;97573.72;4905751;28;20212;-65
2023/03/28 04:07:14;;;;;;;5.00;4.70;;;;;;;-2.32;100.00;97580.47;4976335;28;20289;-65
2023/03/28 04:09:42;;;;;;;4.63;4.33;;;;;;;-2.28;100.00;97587.16;4936654;28;20852;-64
2023/03/28 04:12:10;;;;;;;4.77;4.27;;;;;;;-2.33;100.00;97582.25;4975256;28;20576;-66
2023/03/28 04:14:37;;;;;;;4.60;4.30;;;;;;;-2.38;100.00;97584.31;4976073;28;20738;-65
2023/03/28 04:17:05;;;;;;;5.23;4.50;;;;;;;-2.29;100.00;97584.66;4957491;28;20324;-66
2023/03/28 04:19:33;;;;;;;5.67;4.17;;;;;;;-2.42;100.00;97590.63;4933757;28;20229;-66
2023/03/28 04:22:03;;;;;;;4.20;3.90;;;;;;;-2.59;100.00;97577.81;4974745;28;20231;-65
2023/03/28 04:24:30;;;;;;;4.60;4.03;;;;;;;-2.48;100.00;97583.16;4933076;28;20458;-63
2023/03/28 04:26:58;;;;;;;4.70;4.30;;;;;;;-2.56;100.00;97590.59;4976232;28;20217;-66
2023/03/28 04:29:30;;;;;;;4.40;4.00;;;;;;;-2.62;100.00;97591.81;4977001;28;20251;-62
2023/03/28 04:31:58;;;;;;;4.23;3.77;;;;;;;-2.82;100.00;97587.78;4954268;28;20519;-65
2023/03/28 04:34:28;;;;;;;4.53;4.20;;;;;;;-2.91;100.00;97594.34;4925273;28;20790;-63
2023/03/28 04:37:00;;;;;;;5.10;4.60;;;;;;;-3.06;100.00;97599.47;4966236;28;20574;-64
2023/03/28 04:39:30;;;;;;;4.87;4.57;;;;;;;-3.15;100.00;97610.38;4939539;28;21209;-62
2023/03/28 04:42:00;;;;;;;7.10;4.37;;;;;;;-3.23;100.00;97605.63;4972528;28;20216;-63
2023/03/28 04:44:29;;;;;;;4.20;3.87;;;;;;;-3.27;100.00;97609.31;4976535;28;20326;-64
2023/03/28 04:46:57;;;;;;;5.07;4.67;;;;;;;-3.36;100.00;97618.47;4967837;28;20220;-64
2023/03/28 04:49:25;;;;;;;5.33;4.93;;;;;;;-3.33;100.00;97625.22;4910146;28;21046;-63
2023/03/28 04:51:52;;;;;;;8.93;5.00;;;;;;;-3.37;100.00;97624.56;4975950;28;20209;-64
2023/03/28 04:54:20;;;;;;;4.60;4.20;;;;;;;-3.40;100.00;97619.56;4958660;28;21230;-65
2023/03/28 04:56:49;;;;;;;5.63;5.17;;;;;;;-3.34;100.00;97626.13;4951501;28;20217;-65
2023/03/28 04:59:17;;;;;;;5.77;4.40;;;;;;;-3.25;100.00;97628.19;4974858;28;20491;-64
2023/03/28 05:01:48;;;;;;;5.13;4.73;;;;;;;-3.05;100.00;97627.06;4970992;28;20201;-65
2023/03/28 05:04:17;;;;;;;5.80;5.17;;;;;;;-2.93;100.00;97625.53;4928872;28;22041;-64
2023/03/28 05:06:45;;;;;;;5.13;4.50;;;;;;;-2.80;100.00;97624.84;4983353;28;20290;-65
2023/03/28 05:09:13;;;;;;;6.27;5.00;;;;;;;-2.73;100.00;97623.56;4954165;28;20760;-65
2023/03/28 05:11:41;;;;;;;5.63;4.73;;;;;;;-2.55;100.00;97629.44;4949789;28;20219;-64
2023/03/28 05:14:10;;;;;;;5.40;4.90;;;;;;;-2.45;100.00;97627.13;4975033;28;20219;-65
2023/03/28 05:16:37;;;;;;;5.67;5.03;;;;;;;-2.48;100.00;97633.31;4977187;28;20596;-65
2023/03/28 05:19:05;;;;;;;8.40;4.90;;;;;;;-2.45;100.00;97632.31;4976965;28;20533;-65
2023/03/28 05:21:33;;;;;;;8.10;5.23;;;;;;;-2.39;100.00;97637.13;4929516;28;20713;-65
2023/03/28 05:24:02;;;;;;;6.60;5.83;;;;;;;-2.31;100.00;97641.03;4965973;28;20640;-64
2023/03/28 05:26:31;;;;;;;5.97;5.47;;;;;;;-2.23;100.00;97644.00;4953773;28;20445;-65
2023/03/28 05:28:58;;;;;;;11.00;4.83;;;;;;;-2.23;100.00;97639.66;4975111;28;20225;-65
2023/03/28 05:31:29;;;;;;;7.80;5.00;;;;;;;-2.14;100.00;97648.63;4975869;28;20205;-64
2023/03/28 05:33:57;;;;;;;5.63;5.20;;;;;;;-2.06;100.00;97649.03;4977121;28;20209;-64
2023/03/28 05:36:25;;;;;;;12.37;5.70;;;;;;;-2.00;100.00;97653.00;4921770;28;20453;-64
2023/03/28 05:38:52;;;;;;;8.97;5.90;;;;;;;-1.94;100.00;97650.00;4978410;28;20233;-63
2023/03/28 05:41:20;;;;;;;5.90;5.40;;;;;;;-1.90;100.00;97650.69;4962874;28;20220;-64
2023/03/28 05:43:48;;;;;;;5.67;5.17;;;;;;;-1.97;100.00;97651.97;4962317;28;20214;-64
2023/03/28 05:46:15;;;;;;;5.37;4.87;;;;;;;-1.98;100.00;97647.72;4973015;28;20532;-64
2023/03/28 05:48:44;;;;;;;6.63;5.40;;;;;;;-1.78;100.00;97643.91;4976394;28;20692;-64
2023/03/28 05:51:16;;;;;;;7.67;5.40;;;;;;;-1.71;100.00;97644.31;4929131;28;22422;-66
2023/03/28 05:53:44;;;;;;;5.63;5.13;;;;;;;-1.64;100.00;97640.44;4987190;28;20294;-64
2023/03/28 05:56:11;;;;;;;5.40;4.90;;;;;;;-1.51;100.00;97646.53;4958869;28;20528;-65
2023/03/28 05:58:40;;;;;;;8.43;6.13;;;;;;;-1.43;100.00;97650.41;4962254;28;20725;-65
2023/03/28 06:01:08;;;;;;;6.83;6.20;;;;;;;-1.42;100.00;97641.66;4980367;28;20242;-65
2023/03/28 06:03:38;;;;;;;5.50;5.00;;;;;;;-1.41;100.00;97651.13;4978796;28;20235;-66
2023/03/28 06:06:12;;;;;;;5.43;4.90;;;;;;;-1.37;100.00;97653.47;4949449;28;20201;-65
2023/03/28 06:08:40;;;;;;;6.60;5.97;;;;;;;-1.43;100.00;97646.06;4987166;28;20217;-65
2023/03/28 06:11:10;;;;;;;5.97;5.07;;;;;;;-1.36;100.00;97643.88;4961374;28;20252;-65
2023/03/28 06:13:38;;;;;;;7.30;6.60;;;;;;;-1.32;100.00;97647.97;4983762;28;20456;-64
2023/03/28 06:16:06;;;;;;;6.73;5.33;;;;;;;-1.22;100.00;97646.44;4958912;28;20234;-64
2023/03/28 06:18:33;;;;;;;6.77;5.77;;;;;;;-1.18;100.00;97654.88;4980581;28;20243;-63
2023/03/28 06:21:16;;;;;;;7.43;5.73;;;;;;;-1.07;100.00;97668.03;4963360;28;21696;-64
2023/03/28 06:23:43;;;;;;;11.77;6.53;;;;;;;-1.02;100.00;97662.53;4980556;28;20212;-65
2023/03/28 06:26:11;;;;;;;5.47;5.03;;;;;;;-0.98;100.00;97677.00;4959394;28;20446;-65
2023/03/28 06:28:39;;;;;;;6.10;4.93;;;;;;;-0.94;100.00;97670.69;4982196;28;20755;-65
2023/03/28 06:31:07;;;;;;;11.93;5.50;;;;;;;-0.80;100.00;97668.94;4958206;28;21149;-65
2023/03/28 06:33:35;;;;;;;5.50;5.00;;;;;;;-0.61;100.00;97677.19;4972289;28;20209;-64
2023/03/28 06:36:03;;;;;;;6.83;4.90;;;;;;;-0.41;100.00;97684.59;4970694;28;20240;-64
2023/03/28 06:38:33;;;;;;;6.30;4.50;;;;;;;-0.35;100.00;97682.44;4926929;28;20816;-65
2023/03/28 06:41:03;;;;;;;10.07;5.50;;;;;;;-0.29;100.00;97681.22;4979764;28;20636;-64
2023/03/28 06:43:30;;;;;;;7.37;5.37;;;;;;;-0.17;100.00;97682.16;4976066;28;20531;-63
2023/03/28 06:45:58;;;;;;;7.10;4.47;;;;;;;-0.15;100.00;97686.31;4974215;28;20480;-65
2023/03/28 06:48:30;;;;;;;7.63;5.13;;;;;;;-0.09;100.00;97682.47;4968428;28;20579;-64
2023/03/28 06:51:01;;;;;;;5.73;5.10;;;;;;;0.06;100.00;97692.75;4979902;28;20235;-64
2023/03/28 06:53:28;;;;;;;5.40;4.90;;;;;;;0.15;100.00;97697.34;4928309;28;20805;-65
2023/03/28 06:55:58;;;;;;;7.17;4.80;;;;;;;0.18;100.00;97702.34;4984884;28;20706;-64
2023/03/28 06:58:26;;;;;;;5.30;4.80;;;;;;;0.24;100.00;97709.75;4966484;28;20791;-65
2023/03/28 07:00:53;;;;;;;6.77;4.97;;;;;;;0.37;100.00;97707.09;4975580;28;20228;-64
2023/03/28 07:03:21;;;;;;;12.20;7.53;;;;;;;0.42;100.00;97719.81;4955787;28;20216;-64
2023/03/28 07:05:49;;;;;;;12.17;5.70;;;;;;;0.55;100.00;97719.81;4984605;28;20204;-64
2023/03/28 07:08:16;;;;;;;9.33;7.17;;;;;;;0.65;100.00;97720.00;4971670;28;20228;-64
2023/03/28 07:10:44;;;;;;;6.23;4.87;;;;;;;0.76;100.00;97724.44;4931622;28;20213;-64
2023/03/28 07:13:13;;;;;;;4.10;3.80;;;;;;;0.65;96.07;97728.66;4952757;28;20239;-64
2023/03/28 07:15:41;;;;;;;5.87;3.90;;;;;;;0.62;94.28;97725.44;4982236;28;20314;-62
2023/03/28 07:18:10;;;;;;;6.63;3.70;;;;;;;0.58;92.67;97727.41;4959557;28;20212;-64
2023/03/28 07:20:38;;;;;;;5.30;3.50;;;;;;;0.77;90.97;97721.72;4980604;28;21126;-64
2023/03/28 07:23:06;;;;;;;3.87;3.47;;;;;;;0.77;88.79;97726.94;4981038;28;20213;-64
2023/03/28 07:25:34;;;;;;;3.77;3.30;;;;;;;0.65;87.66;97728.66;4928972;28;20220;-63
2023/03/28 07:28:02;;;;;;;3.50;3.20;;;;;;;0.66;86.99;97734.72;4960255;28;20216;-64
2023/03/28 07:30:31;;;;;;;3.67;3.30;;;;;;;0.78;85.00;97728.63;4985762;28;20255;-63
2023/03/28 07:32:59;;;;;;;6.83;3.37;;;;;;;0.83;83.86;97734.34;4972952;28;20209;-66
2023/03/28 07:35:44;;;;;;;3.30;3.00;;;;;;;1.20;83.66;97735.25;4981292;28;20209;-65
2023/03/28 07:38:12;;;;;;;5.97;3.87;;;;;;;1.35;82.76;97738.53;4979492;28;20299;-67
2023/03/28 07:40:40;;;;;;;5.37;3.73;;;;;;;1.67;81.34;97728.31;4933774;28;20239;-65
2023/03/28 07:43:08;;;;;;;6.30;2.80;;;;;;;1.81;79.18;97737.75;4966186;28;20607;-65
2023/03/28 07:45:37;;;;;;;6.83;3.00;;;;;;;1.82;76.55;97741.19;4972959;28;20208;-64
2023/03/28 07:48:05;;;;;;;3.20;3.00;;;;;;;1.86;77.95;97743.44;4981049;28;20219;-64
2023/03/28 07:50:33;;;;;;;3.20;2.60;;;;;;;1.84;75.98;97742.72;4961770;28;20252;-65
2023/03/28 07:53:01;;;;;;;4.13;2.23;;;;;;;1.90;74.44;97753.69;4981658;28;20544;-64
2023/03/28 07:55:29;;;;;;;4.67;2.50;;;;;;;1.59;73.74;97765.47;4934223;28;21238;-64
2023/03/28 07:58:01;;;;;;;7.27;2.40;;;;;;;1.67;74.10;97761.47;4973200;28;20684;-64
2023/03/28 08:00:29;;;;;;;4.80;2.47;;;;;;;1.57;73.02;97771.75;4964219;28;20232;-64
2023/03/28 08:02:58;;;;;;;4.07;2.23;;;;;;;1.59;72.86;97770.69;4984349;28;20252;-65
2023/03/28 08:05:26;;;;;;;2.87;2.17;;;;;;;1.49;72.80;97771.47;4959281;28;20924;-64
2023/03/28 08:07:54;;;;;;;3.40;2.50;;;;;;;1.64;73.51;97786.00;4978559;28;20209;-64
2023/03/28 08:10:21;;;;;;;6.70;2.40;;;;;;;1.81;73.16;97776.94;4929086;28;21293;-63
2023/03/28 08:12:49;;;;;;;6.50;2.60;;;;;;;2.06;72.82;97771.66;4983316;28;20353;-65
2023/03/28 08:15:16;;;;;;;3.83;2.43;;;;;;;2.14;72.23;97775.34;4951992;28;20224;-65
2023/03/28 08:17:44;;;;;;;2.40;2.20;;;;;;;2.21;71.93;97780.97;4981338;28;20209;-64
2023/03/28 08:20:13;;;;;;;2.20;2.10;;;;;;;2.14;69.57;97782.38;4978834;28;20244;-64
2023/03/28 08:22:41;;;;;;;2.30;2.10;;;;;;;2.26;69.49;97785.81;4957614;28;20227;-65
2023/03/28 08:25:09;;;;;;;3.40;2.30;;;;;;;2.17;69.42;97787.38;4941404;28;20243;-64
2023/03/28 08:27:37;;;;;;;3.30;2.40;;;;;;;2.25;68.90;97790.25;4977764;28;20730;-64
2023/03/28 08:30:06;;;;;;;2.43;2.10;;;;;;;2.25;68.64;97794.63;4962002;28;20220;-64
2023/03/28 08:32:34;;;;;;;5.87;1.87;;;;;;;2.20;68.25;97796.75;4980104;28;20208;-64
2023/03/28 08:35:05;;;;;;;6.97;2.60;;;;;;;2.23;68.45;97802.59;4984476;28;20246;-64
2023/03/28 08:37:34;;;;;;;4.07;2.57;;;;;;;1.98;68.36;97811.44;4958085;28;20216;-64
2023/03/28 08:40:15;;;;;;;7.00;2.30;;;;;;;1.81;69.29;97804.84;4960111;28;20225;-66
2023/03/28 08:42:52;;;;;;;4.37;2.37;;;;;;;1.80;69.58;97805.81;4983191;28;20748;-64
2023/03/28 08:45:28;;;;;;;4.20;2.13;;;;;;;1.97;70.24;97812.41;4949663;28;20715;-64
2023/03/28 08:48:04;;;;;;;3.63;1.80;;;;;;;1.93;68.71;97814.41;4979407;28;20209;-64
2023/03/28 08:50:34;;;;;;;5.20;1.83;;;;;;;2.01;69.92;97813.84;4982663;28;20251;-64
2023/03/28 08:53:03;;;;;;;2.50;2.30;;;;;;;2.03;69.52;97815.38;4955646;28;20205;-65
2023/03/28 08:55:34;;;;;;;2.07;1.83;;;;;;;2.02;69.95;97823.34;4978519;28;20653;-65
2023/03/28 08:58:03;;;;;;;3.33;3.00;;;;;;;1.92;69.94;97825.78;4932508;28;20205;-64
2023/03/28 09:00:32;;;;;;;4.10;2.57;;;;;;;1.88;70.33;97832.19;4956221;28;20598;-63
2023/03/28 09:03:00;;;;;;;3.43;2.47;;;;;;;1.94;70.12;97829.13;4976753;28;20196;-65
2023/03/28 09:05:35;;;;;;;2.83;2.30;;;;;;;1.98;69.99;97822.72;4982812;28;20415;-64
2023/03/28 09:08:17;;;;;;;4.37;2.37;;;;;;;2.14;70.78;97821.59;4956749;28;20208;-65
2023/03/28 09:10:50;;;;;;;7.43;2.70;;;;;;;2.00;69.37;97818.22;4983916;28;20266;-64
2023/03/28 09:13:28;;;;;;;2.10;1.97;;;;;;;2.20;69.13;97812.44;4931718;28;20219;-65
2023/03/28 09:16:07;;;;;;;3.63;2.53;;;;;;;2.11;69.74;97814.00;4957215;28;20232;-64
2023/03/28 09:18:44;;;;;;;5.30;2.53;;;;;;;1.97;70.40;97813.22;4988141;28;20664;-63
2023/03/28 09:21:17;;;;;;;6.77;3.13;;;;;;;1.73;71.33;97806.25;4977888;28;20223;-65
2023/03/28 09:23:55;;;;;;;3.50;2.47;;;;;;;1.89;70.07;97810.34;4962081;28;20431;-64
2023/03/28 09:26:35;;;;;;;2.47;1.93;;;;;;;2.24;69.30;97819.09;4960878;28;20503;-65
2023/03/28 09:29:04;;;;;;;2.77;1.87;;;;;;;2.62;68.54;97814.53;4984066;28;21341;-64
2023/03/28 09:31:35;;;;;;;1.53;1.43;;;;;;;2.89;66.43;97808.94;4957266;28;20219;-64
2023/03/28 09:34:03;;;;;;;2.53;1.80;;;;;;;3.17;67.05;97809.38;4987623;28;20378;-65
2023/03/28 09:36:32;;;;;;;3.10;2.23;;;;;;;3.18;67.09;97809.25;4973699;28;20329;-65
2023/03/28 09:39:24;;;;;;;3.17;2.17;;;;;;;3.11;65.70;97802.84;4966338;28;20724;-63
2023/03/28 09:41:55;;;;;;;2.07;1.83;;;;;;;3.21;64.09;97813.44;4980712;28;20576;-65
2023/03/28 09:44:27;;;;;;;3.37;1.70;;;;;;;3.62;62.83;97818.94;4929152;28;20443;-65
2023/03/28 09:46:56;;;;;;;1.67;1.50;;;;;;;4.05;61.29;97825.91;4967432;28;20211;-63
2023/03/28 09:49:25;;;;;;;2.00;1.37;;;;;;;3.94;59.55;97812.00;4972477;28;20264;-64
2023/03/28 09:51:55;;;;;;;2.13;1.40;;;;;;;4.04;59.38;97815.53;4978360;28;20616;-63
2023/03/28 09:54:28;;;;;;;3.77;1.60;;;;;;;3.94;60.70;97823.31;4960048;28;20473;-64
2023/03/28 09:56:59;;;;;;;2.43;1.63;;;;;;;3.86;60.10;97817.88;4984644;28;20583;-63
2023/03/28 09:59:28;;;;;;;1.63;1.40;;;;;;;4.00;60.81;97822.84;4933099;28;20235;-64
2023/03/28 10:01:59;;;;;;;1.57;1.47;;;;;;;3.88;58.72;97810.72;4960899;28;20224;-63
2023/03/28 10:04:36;;;;;;;3.43;1.63;;;;;;;3.96;59.85;97834.50;4981098;28;20694;-64
2023/03/28 10:07:21;;;;;;;5.30;1.47;;;;;;;4.02;60.49;97834.03;4984441;28;20212;-64
2023/03/28 10:09:52;;;;;;;3.00;1.60;;;;;;;3.76;61.01;97836.13;4960626;28;20263;-63
2023/03/28 10:12:23;;;;;;;6.10;1.80;;;;;;;3.85;59.57;97838.03;4981570;28;20488;-67
2023/03/28 10:14:50;;;;;;;3.57;2.03;;;;;;;3.66;60.77;97840.47;4934805;28;20807;-64
2023/03/28 10:17:23;;;;;;;2.40;1.97;;;;;;;3.75;61.37;97837.94;4962673;28;20212;-67
2023/03/28 10:19:51;;;;;;;3.77;1.63;;;;;;;4.16;59.12;97839.91;4983547;28;20814;-65
2023/03/28 10:22:22;;;;;;;1.80;1.70;;;;;;;4.01;59.19;97832.38;4979233;28;20235;-65
2023/03/28 10:24:51;;;;;;;3.60;1.80;;;;;;;4.03;57.47;97846.19;4960237;28;20594;-64
2023/03/28 10:27:22;;;;;;;2.37;1.77;;;;;;;3.98;57.42;97845.72;4983275;28;20222;-65
2023/03/28 10:29:51;;;;;;;3.40;1.23;;;;;;;4.33;57.90;97836.72;4982493;28;20518;-65
2023/03/28 10:32:24;;;;;;;2.27;1.67;;;;;;;4.73;59.33;97842.19;4909715;28;20537;-64
2023/03/28 10:35:00;;;;;;;3.90;1.57;;;;;;;4.88;57.25;97842.66;4983584;28;20651;-64
2023/03/28 10:37:30;;;;;;;4.13;1.57;;;;;;;4.78;58.22;97840.00;4976758;28;20220;-65
2023/03/28 10:40:04;;;;;;;1.70;1.43;;;;;;;4.75;58.89;97840.28;4966412;28;21005;-65
2023/03/28 10:42:41;;;;;;;2.13;1.83;;;;;;;4.64;57.88;97847.25;4978198;28;20225;-65
2023/03/28 10:45:25;;;;;;;5.07;1.40;;;;;;;4.48;57.41;97842.47;4979486;28;20210;-64
2023/03/28 10:47:57;;;;;;;1.57;1.47;;;;;;;4.09;57.16;97851.88;4958024;28;20392;-64
2023/03/28 10:50:29;;;;;;;4.17;1.83;;;;;;;3.61;58.39;97851.34;4983409;28;20668;-65
2023/03/28 10:53:09;;;;;;;2.97;1.80;;;;;;;3.45;60.75;97859.59;4978529;28;20584;-64
2023/03/28 10:55:55;;;;;;;7.87;1.83;;;;;;;3.76;61.00;97855.34;4960532;28;21136;-66
2023/03/28 10:58:31;;;;;;;6.13;2.37;;;;;;;3.79;59.98;97858.66;4976358;28;20231;-64
2023/03/28 11:01:01;;;;;;;2.40;2.20;;;;;;;3.85;58.68;97856.38;4927611;28;21304;-64
2023/03/28 11:03:38;;;;;;;3.83;2.00;;;;;;;3.97;59.70;97853.72;4952852;28;20614;-65
2023/03/28 11:06:12;;;;;;;3.80;1.87;;;;;;;4.04;58.51;97853.09;4983655;28;20482;-64
2023/03/28 11:08:47;;;;;;;2.10;1.30;;;;;;;4.05;58.39;97853.91;4972277;28;20531;-65
2023/03/28 11:11:31;;;;;;;4.20;1.43;;;;;;;4.27;58.54;97845.09;4957137;28;20218;-66
2023/03/28 11:14:04;;;;;;;2.50;1.73;;;;;;;4.92;57.52;97854.56;4977691;28;20431;-65
2023/03/28 11:16:42;;;;;;;6.77;2.20;;;;;;;4.94;56.53;97847.41;4974289;28;20768;-64
2023/03/28 11:19:23;;;;;;;2.37;1.27;;;;;;;4.92;54.54;97851.94;4955053;28;20577;-64
2023/03/28 11:21:54;;;;;;;2.30;1.63;;;;;;;5.02;54.48;97844.09;4972783;28;20229;-65
2023/03/28 11:24:27;;;;;;;3.27;2.37;;;;;;;5.26;54.57;97845.59;4981645;28;20235;-64
2023/03/28 11:27:01;;;;;;;2.80;2.50;;;;;;;5.42;55.53;97845.06;4953853;28;20418;-66
2023/03/28 11:29:48;;;;;;;5.90;3.00;;;;;;;5.66;54.92;97849.94;4978801;28;20221;-67
2023/03/28 11:32:18;;;;;;;5.00;3.40;;;;;;;5.35;54.97;97847.41;4975456;28;20837;-66
2023/03/28 11:35:02;;;;;;;3.63;3.00;;;;;;;4.95;55.30;97856.09;4907483;28;20213;-65
2023/03/28 11:37:33;;;;;;;2.03;1.73;;;;;;;4.89;57.07;97841.69;4973804;28;20212;-64
2023/03/28 11:40:06;;;;;;;6.43;2.13;;;;;;;4.56;56.81;97856.75;4977339;28;20224;-64
2023/03/28 11:42:41;;;;;;;4.13;1.77;;;;;;;4.67;58.70;97864.53;4969700;28;20227;-65
2023/03/28 11:45:19;;;;;;;2.90;1.73;;;;;;;4.57;57.62;97850.53;4968898;28;20558;-64
2023/03/28 11:48:04;;;;;;;1.97;1.80;;;;;;;4.43;58.76;97849.06;4975556;28;20423;-64
2023/03/28 11:50:37;;;;;;;3.50;1.97;;;;;;;4.77;58.98;97860.19;4931223;28;20344;-65